Time;durP1;ratioP1;P1;durP2;ratioP2;P2;SDS_P1;SDS_P2;PMS_P1;PMS_P2;Temp;Humidity;BMP_temperature;BMP_pressure;BME280_temperature;BME280_humidity;BME280_pressure;Samples;Min_cycle;Max_cycle;Signal;HPM_P1;HPM_P2
2022/10/20 00:00:40;;;;;;;9.33;7.43;;;14.10;99.90;;;;;;5045604;28;20666;-79
2022/10/20 00:03:06;;;;;;;11.13;7.97;;;14.10;99.90;;;;;;5048532;28;21312;-78
2022/10/20 00:05:31;;;;;;;10.23;8.13;;;14.10;99.90;;;;;;5042505;28;20186;-78
2022/10/20 00:07:57;;;;;;;10.07;7.70;;;14.10;99.90;;;;;;5048578;28;20189;-79
2022/10/20 00:10:23;;;;;;;9.40;6.83;;;14.10;99.90;;;;;;5047763;28;20293;-79
2022/10/20 00:12:49;;;;;;;11.23;7.00;;;14.10;99.90;;;;;;5040505;28;20179;-79
2022/10/20 00:15:14;;;;;;;8.97;7.33;;;14.10;99.90;;;;;;5046525;28;20181;-79
2022/10/20 00:17:40;;;;;;;12.57;6.83;;;14.10;99.90;;;;;;5035205;28;20268;-78
2022/10/20 00:20:06;;;;;;;9.83;7.07;;;14.10;99.90;;;;;;5048365;28;20193;-78
2022/10/20 00:22:32;;;;;;;10.10;7.30;;;14.10;99.90;;;;;;5047134;28;20182;-78
2022/10/20 00:24:57;;;;;;;7.83;6.73;;;14.00;99.90;;;;;;5031368;28;20213;-78
2022/10/20 00:27:23;;;;;;;8.40;6.73;;;14.00;99.90;;;;;;5048397;28;20686;-78
2022/10/20 00:29:49;;;;;;;9.63;7.33;;;14.00;99.90;;;;;;5047535;28;20206;-78
2022/10/20 00:32:15;;;;;;;8.70;7.37;;;14.00;99.90;;;;;;5048997;28;20189;-79
2022/10/20 00:34:40;;;;;;;10.47;7.50;;;13.90;99.90;;;;;;5036487;28;20202;-79
2022/10/20 00:37:06;;;;;;;10.33;7.67;;;13.90;99.90;;;;;;5038896;28;20191;-78
2022/10/20 00:39:32;;;;;;;13.37;7.50;;;13.90;99.90;;;;;;5043435;28;20633;-78
2022/10/20 00:42:01;;;;;;;10.23;7.23;;;13.80;99.90;;;;;;5041978;28;20191;-79
2022/10/20 00:44:55;;;;;;;8.57;7.13;;;13.80;99.90;;;;;;5039553;28;20293;-78
2022/10/20 00:47:37;;;;;;;8.87;7.43;;;13.80;99.90;;;;;;5046039;28;20181;-79
2022/10/20 00:50:17;;;;;;;10.83;7.53;;;13.80;99.90;;;;;;5047966;28;21020;-79
2022/10/20 00:52:44;;;;;;;10.83;7.70;;;13.80;99.90;;;;;;5041824;28;20264;-79
2022/10/20 00:55:13;;;;;;;9.93;7.23;;;13.80;99.90;;;;;;5039716;28;20210;-79
2022/10/20 00:57:41;;;;;;;8.37;7.23;;;13.80;99.90;;;;;;5041520;28;20182;-79
2022/10/20 01:00:07;;;;;;;8.93;6.77;;;13.80;99.90;;;;;;5043937;28;20182;-78
2022/10/20 01:02:34;;;;;;;8.60;6.07;;;13.80;99.90;;;;;;5046239;28;20185;-78
2022/10/20 01:05:00;;;;;;;9.27;7.50;;;13.80;99.90;;;;;;5042118;28;20206;-78
2022/10/20 01:07:26;;;;;;;10.97;6.93;;;13.70;99.90;;;;;;5045271;28;20832;-79
2022/10/20 01:09:52;;;;;;;8.97;6.90;;;13.70;99.90;;;;;;5044641;28;20209;-79
2022/10/20 01:12:53;;;;;;;9.47;6.93;;;13.70;99.90;;;;;;5044389;28;20181;-79
2022/10/20 01:15:41;;;;;;;7.87;6.80;;;13.70;99.90;;;;;;5041831;28;20284;-78
2022/10/20 01:18:20;;;;;;;9.10;7.10;;;13.70;99.90;;;;;;5045585;28;20631;-78
2022/10/20 01:20:59;;;;;;;9.13;6.80;;;13.70;99.90;;;;;;5042058;28;20197;-78
2022/10/20 01:23:42;;;;;;;9.13;6.90;;;13.60;99.90;;;;;;5042143;28;20315;-78
2022/10/20 01:26:35;;;;;;;8.77;6.33;;;13.60;99.90;;;;;;5044497;28;20530;-79
2022/10/20 01:29:12;;;;;;;8.80;6.43;;;13.50;99.90;;;;;;5038452;28;20173;-79
2022/10/20 01:31:51;;;;;;;6.80;6.03;;;13.50;99.90;;;;;;5037726;28;20240;-79
2022/10/20 01:34:36;;;;;;;7.23;6.30;;;13.50;99.90;;;;;;5036750;28;20208;-78
2022/10/20 01:37:15;;;;;;;9.67;7.67;;;13.40;99.90;;;;;;5028797;28;20186;-78
2022/10/20 01:39:52;;;;;;;10.50;6.83;;;13.40;99.90;;;;;;5040693;28;20225;-79
2022/10/20 01:42:22;;;;;;;9.97;7.70;;;13.40;99.90;;;;;;5046195;28;20266;-79
2022/10/20 01:44:50;;;;;;;8.70;6.50;;;13.30;99.90;;;;;;5039143;28;20354;-79
2022/10/20 01:47:17;;;;;;;9.17;7.17;;;13.30;99.90;;;;;;5046517;28;20231;-78
2022/10/20 01:49:44;;;;;;;9.33;7.13;;;13.30;99.90;;;;;;5043531;28;20209;-78
2022/10/20 01:52:11;;;;;;;8.63;7.00;;;13.30;99.90;;;;;;5042648;28;20184;-79
2022/10/20 01:54:37;;;;;;;8.60;6.60;;;13.30;99.90;;;;;;5044815;28;20867;-79
2022/10/20 01:57:31;;;;;;;9.03;7.47;;;13.30;99.90;;;;;;5041772;28;20178;-78
2022/10/20 02:00:13;;;;;;;10.07;7.40;;;13.20;99.90;;;;;;5040162;28;20272;-79
2022/10/20 02:02:53;;;;;;;9.40;7.77;;;13.10;99.90;;;;;;5044228;28;20196;-78
2022/10/20 02:05:43;;;;;;;8.43;6.93;;;13.10;99.90;;;;;;5044184;28;20182;-78
2022/10/20 02:08:15;;;;;;;8.97;6.93;;;13.20;99.90;;;;;;5046324;28;20194;-78
2022/10/20 02:10:49;;;;;;;9.87;7.20;;;13.20;99.90;;;;;;5046591;28;20194;-78
2022/10/20 02:13:18;;;;;;;9.83;7.47;;;13.20;99.90;;;;;;5044630;28;20201;-78
2022/10/20 02:15:49;;;;;;;11.77;8.17;;;13.10;99.90;;;;;;5044292;28;20595;-78
2022/10/20 02:18:19;;;;;;;9.73;7.93;;;13.10;99.90;;;;;;5052648;28;20477;-78
2022/10/20 02:20:48;;;;;;;13.53;8.67;;;13.10;99.90;;;;;;5042773;28;20194;-79
2022/10/20 02:23:15;;;;;;;14.00;9.40;;;13.10;99.90;;;;;;5044148;28;20210;-79
2022/10/20 02:25:41;;;;;;;12.47;8.73;;;13.00;99.90;;;;;;5044078;28;20193;-79
2022/10/20 02:28:13;;;;;;;8.47;7.13;;;13.00;99.90;;;;;;5039156;28;20178;-79
2022/10/20 02:30:39;;;;;;;10.57;8.13;;;13.00;99.90;;;;;;5037042;28;20225;-78
2022/10/20 02:33:06;;;;;;;9.70;7.80;;;13.10;99.90;;;;;;5042473;28;20185;-79
2022/10/20 02:35:33;;;;;;;9.50;7.27;;;13.10;99.90;;;;;;5042077;28;20196;-78
2022/10/20 02:38:00;;;;;;;10.47;8.40;;;13.10;99.90;;;;;;5036036;28;20185;-79
2022/10/20 02:40:26;;;;;;;8.30;6.90;;;13.10;99.90;;;;;;5047501;28;20215;-79
2022/10/20 02:42:52;;;;;;;8.57;7.30;;;13.10;99.90;;;;;;5040894;28;20302;-79
2022/10/20 02:45:18;;;;;;;10.40;7.80;;;13.00;99.90;;;;;;5047593;28;20591;-79
2022/10/20 02:47:44;;;;;;;8.07;6.77;;;13.00;99.90;;;;;;5049929;28;20191;-78
2022/10/20 02:50:14;;;;;;;9.77;6.80;;;13.00;99.90;;;;;;5048552;28;20202;-78
2022/10/20 02:52:41;;;;;;;10.43;7.97;;;13.00;99.90;;;;;;5039804;28;20264;-78
2022/10/20 02:55:07;;;;;;;8.77;7.43;;;13.00;99.90;;;;;;5043029;28;20198;-79
2022/10/20 02:57:33;;;;;;;9.57;7.53;;;13.00;99.90;;;;;;5043740;28;20181;-79
2022/10/20 02:59:59;;;;;;;10.10;8.17;;;12.90;99.90;;;;;;5051571;28;20588;-79
2022/10/20 03:02:24;;;;;;;17.63;10.03;;;12.90;99.90;;;;;;5036244;28;20273;-79
2022/10/20 03:04:50;;;;;;;15.57;9.63;;;12.90;99.90;;;;;;5049555;28;20216;-79
2022/10/20 03:07:16;;;;;;;14.33;9.60;;;12.90;99.90;;;;;;5042394;28;20205;-78
2022/10/20 03:09:43;;;;;;;11.43;8.47;;;12.90;99.90;;;;;;5046588;28;20194;-78
2022/10/20 03:12:08;;;;;;;9.60;7.63;;;12.90;99.90;;;;;;5035741;28;20200;-79
2022/10/20 03:14:34;;;;;;;12.70;8.60;;;12.90;99.90;;;;;;5049837;28;20979;-78
2022/10/20 03:17:00;;;;;;;13.90;9.07;;;12.90;99.90;;;;;;5044944;28;20292;-79
2022/10/20 03:19:25;;;;;;;19.80;9.90;;;12.90;99.90;;;;;;5048730;28;20201;-79
2022/10/20 03:21:51;;;;;;;22.50;11.37;;;12.90;99.90;;;;;;5044418;28;20185;-79
2022/10/20 03:24:17;;;;;;;13.30;9.63;;;13.00;99.90;;;;;;5037028;28;20256;-78
2022/10/20 03:26:43;;;;;;;10.40;7.50;;;13.00;99.90;;;;;;5047446;28;20186;-79
2022/10/20 03:29:08;;;;;;;10.97;8.43;;;12.90;99.90;;;;;;5042580;28;20543;-78
2022/10/20 03:31:34;;;;;;;13.47;7.90;;;12.90;99.90;;;;;;5039607;28;20261;-79
2022/10/20 03:34:00;;;;;;;17.17;10.10;;;12.90;99.90;;;;;;5040487;28;20270;-79
2022/10/20 03:36:25;;;;;;;18.30;10.77;;;13.00;99.90;;;;;;5050101;28;20186;-78
2022/10/20 03:38:51;;;;;;;28.23;13.07;;;13.00;99.90;;;;;;5047914;28;20178;-78
2022/10/20 03:41:17;;;;;;;17.47;9.80;;;13.00;99.90;;;;;;5040853;28;20175;-79
2022/10/20 03:43:42;;;;;;;16.47;9.57;;;13.00;99.90;;;;;;5047603;28;20720;-78
2022/10/20 03:46:10;;;;;;;14.27;9.27;;;13.00;99.90;;;;;;5044017;28;20242;-78
2022/10/20 03:48:37;;;;;;;12.40;8.23;;;13.00;99.90;;;;;;5047814;28;20277;-79
2022/10/20 03:51:03;;;;;;;10.00;7.47;;;13.00;99.90;;;;;;5043798;28;20292;-79
2022/10/20 03:53:29;;;;;;;14.73;9.97;;;13.00;99.90;;;;;;5041535;28;20577;-79
2022/10/20 03:55:55;;;;;;;16.83;10.77;;;13.00;99.90;;;;;;5056810;28;20182;-79
2022/10/20 03:58:22;;;;;;;17.70;9.77;;;13.10;99.90;;;;;;5045955;28;20185;-78
2022/10/20 04:00:48;;;;;;;21.27;12.27;;;13.10;99.90;;;;;;5041596;28;20174;-79
2022/10/20 04:03:14;;;;;;;15.13;9.90;;;13.20;99.90;;;;;;5046432;28;20301;-78
2022/10/20 04:05:40;;;;;;;15.33;10.07;;;13.20;99.90;;;;;;5038238;28;20261;-78
2022/10/20 04:08:06;;;;;;;12.03;8.30;;;13.30;99.90;;;;;;5042896;28;20201;-78
2022/10/20 04:10:32;;;;;;;10.90;7.70;;;13.30;99.90;;;;;;5041481;28;20748;-78
2022/10/20 04:12:59;;;;;;;9.63;8.55;;;13.40;99.90;;;;;;5039337;28;20433;-78
2022/10/20 04:15:25;;;;;;;19.77;11.20;;;13.50;99.90;;;;;;5045204;28;20231;-78
2022/10/20 04:17:51;;;;;;;14.60;9.53;;;13.50;99.90;;;;;;5045078;28;20260;-78
2022/10/20 04:20:17;;;;;;;9.73;7.67;;;13.60;99.90;;;;;;5046389;28;20219;-78
2022/10/20 04:22:43;;;;;;;10.57;7.53;;;13.60;99.90;;;;;;5044854;28;20186;-79
2022/10/20 04:25:10;;;;;;;15.70;10.20;;;13.70;99.90;;;;;;5044601;28;20810;-79
2022/10/20 04:27:37;;;;;;;12.13;8.23;;;13.70;99.90;;;;;;5041312;28;20208;-79
2022/10/20 04:30:04;;;;;;;9.87;7.73;;;13.70;99.90;;;;;;5058374;28;20195;-79
2022/10/20 04:32:29;;;;;;;9.80;8.10;;;13.80;99.90;;;;;;5044323;28;20253;-79
2022/10/20 04:34:55;;;;;;;9.00;7.10;;;13.80;99.90;;;;;;5041442;28;20213;-79
2022/10/20 04:37:21;;;;;;;11.23;8.13;;;13.80;99.90;;;;;;5041129;28;20287;-79
2022/10/20 04:39:49;;;;;;;15.80;9.53;;;13.80;99.90;;;;;;5036827;28;20293;-78
2022/10/20 04:42:19;;;;;;;14.03;8.33;;;13.80;99.90;;;;;;5040187;28;20182;-78
2022/10/20 04:44:45;;;;;;;10.97;8.17;;;13.70;99.90;;;;;;5033406;28;20209;-79
2022/10/20 04:47:11;;;;;;;12.33;8.57;;;13.70;99.90;;;;;;5041959;28;20589;-79
2022/10/20 04:49:38;;;;;;;13.37;9.33;;;13.70;99.90;;;;;;5037950;28;20233;-79
2022/10/20 04:52:04;;;;;;;12.63;8.20;;;13.70;99.90;;;;;;5038290;28;20212;-78
2022/10/20 04:54:30;;;;;;;8.50;7.50;;;13.70;99.90;;;;;;5040862;28;20225;-79
2022/10/20 04:56:56;;;;;;;9.20;7.17;;;13.70;99.90;;;;;;5039891;28;20634;-78
2022/10/20 04:59:22;;;;;;;9.00;7.93;;;13.60;99.90;;;;;;5039924;28;20316;-78
2022/10/20 05:01:48;;;;;;;11.43;8.43;;;13.60;99.90;;;;;;5040277;28;20752;-78
2022/10/20 05:04:19;;;;;;;14.47;8.90;;;13.60;99.90;;;;;;5044379;28;20623;-78
2022/10/20 05:06:46;;;;;;;12.80;9.53;;;13.60;99.90;;;;;;5044257;28;20648;-78
2022/10/20 05:09:11;;;;;;;11.10;8.33;;;13.70;99.90;;;;;;5040541;28;20280;-78
2022/10/20 05:11:37;;;;;;;13.32;9.52;;;13.70;99.90;;;;;;5037721;28;20923;-79
2022/10/20 05:14:03;;;;;;;16.43;9.90;;;13.70;99.90;;;;;;5042482;28;20665;-78
2022/10/20 05:16:29;;;;;;;15.87;7.80;;;13.80;99.90;;;;;;5039543;28;20264;-78
2022/10/20 05:18:56;;;;;;;9.23;7.80;;;13.70;99.90;;;;;;5040388;28;20181;-78
2022/10/20 05:21:26;;;;;;;13.70;9.40;;;13.70;99.90;;;;;;5041293;28;20174;-76
2022/10/20 05:23:56;;;;;;;15.73;10.70;;;13.80;99.90;;;;;;5042780;28;20419;-79
2022/10/20 05:26:24;;;;;;;13.37;9.67;;;13.80;99.90;;;;;;5039830;28;20541;-76
2022/10/20 05:28:51;;;;;;;11.37;9.13;;;13.80;99.90;;;;;;5041389;28;20894;-77
2022/10/20 05:31:20;;;;;;;21.03;11.80;;;13.80;99.90;;;;;;5039443;28;20181;-79
2022/10/20 05:33:48;;;;;;;22.83;12.77;;;13.80;99.90;;;;;;5044880;28;20208;-78
2022/10/20 05:36:17;;;;;;;19.47;10.60;;;13.80;99.90;;;;;;5044280;28;20184;-77
2022/10/20 05:38:42;;;;;;;16.20;10.63;;;13.80;99.90;;;;;;5046036;28;20227;-74
2022/10/20 05:41:11;;;;;;;13.00;9.40;;;13.70;99.90;;;;;;5044488;28;20257;-75
2022/10/20 05:43:37;;;;;;;15.83;10.20;;;13.70;99.90;;;;;;5039848;28;20695;-78
2022/10/20 05:46:03;;;;;;;12.37;9.93;;;13.70;99.90;;;;;;5048183;28;20178;-78
2022/10/20 05:48:29;;;;;;;17.17;11.03;;;13.70;99.90;;;;;;5048765;28;20182;-78
2022/10/20 05:50:55;;;;;;;17.83;11.80;;;13.80;99.90;;;;;;5047120;28;20245;-77
2022/10/20 05:53:21;;;;;;;16.67;10.87;;;13.70;99.90;;;;;;5042028;28;20615;-79
2022/10/20 05:55:47;;;;;;;14.20;10.43;;;13.70;99.90;;;;;;5047837;28;20205;-75
2022/10/20 05:58:13;;;;;;;14.27;10.37;;;13.70;99.90;;;;;;5047992;28;20594;-77
2022/10/20 06:00:50;;;;;;;13.30;10.47;;;13.70;99.90;;;;;;5039826;28;20273;-78
2022/10/20 06:03:16;;;;;;;12.33;10.17;;;13.70;99.90;;;;;;5041173;28;20285;-79
2022/10/20 06:05:42;;;;;;;13.33;10.70;;;13.70;99.90;;;;;;5047319;28;20182;-78
2022/10/20 06:08:08;;;;;;;13.47;10.20;;;13.70;99.90;;;;;;5035313;28;20195;-78
2022/10/20 06:10:34;;;;;;;16.57;10.63;;;13.70;99.90;;;;;;5042221;28;20716;-79
2022/10/20 06:13:00;;;;;;;13.13;10.73;;;13.70;99.90;;;;;;5038308;28;20260;-77
2022/10/20 06:15:25;;;;;;;12.93;10.33;;;13.70;99.90;;;;;;5041397;28;20507;-77
2022/10/20 06:17:51;;;;;;;14.23;11.13;;;13.60;99.90;;;;;;5042275;28;20334;-77
2022/10/20 06:20:17;;;;;;;12.93;10.43;;;13.60;99.90;;;;;;5044829;28;20897;-79
2022/10/20 06:22:42;;;;;;;13.43;10.70;;;13.70;99.90;;;;;;5043356;28;20268;-77
2022/10/20 06:25:08;;;;;;;14.27;11.23;;;13.70;99.90;;;;;;5034677;28;20296;-77
2022/10/20 06:27:34;;;;;;;12.03;10.47;;;13.80;99.90;;;;;;5038724;28;20174;-77
2022/10/20 06:30:00;;;;;;;15.07;10.60;;;13.80;99.90;;;;;;5033320;28;20731;-78
2022/10/20 06:32:25;;;;;;;13.43;10.33;;;13.80;99.90;;;;;;5044461;28;20234;-77
2022/10/20 06:34:52;;;;;;;19.07;11.30;;;13.70;99.90;;;;;;5040355;28;20671;-77
2022/10/20 06:37:18;;;;;;;13.17;10.97;;;13.80;99.90;;;;;;5037423;28;20272;-77
2022/10/20 06:39:44;;;;;;;14.13;10.87;;;13.80;99.90;;;;;;5046816;28;20706;-77
2022/10/20 06:42:10;;;;;;;11.77;9.57;;;13.80;99.90;;;;;;5045173;28;20327;-76
2022/10/20 06:44:43;;;;;;;11.97;9.57;;;13.90;99.90;;;;;;5045683;28;20900;-77
2022/10/20 06:47:09;;;;;;;11.77;9.60;;;14.00;99.90;;;;;;5044580;28;20261;-77
2022/10/20 06:49:35;;;;;;;13.00;9.43;;;14.00;99.90;;;;;;5038802;28;20243;-77
2022/10/20 06:52:01;;;;;;;13.13;9.50;;;14.10;99.90;;;;;;5045435;28;20181;-76
2022/10/20 06:54:26;;;;;;;11.03;9.10;;;14.00;99.90;;;;;;5047152;28;20205;-76
2022/10/20 06:56:52;;;;;;;13.97;10.80;;;14.10;99.90;;;;;;5046653;28;20174;-77
2022/10/20 06:59:18;;;;;;;11.97;9.67;;;14.10;99.90;;;;;;5036262;28;20278;-76
2022/10/20 07:01:43;;;;;;;15.90;11.60;;;14.20;99.90;;;;;;5043246;28;20324;-76
2022/10/20 07:04:13;;;;;;;15.60;12.03;;;14.20;99.90;;;;;;5046934;28;20220;-76
2022/10/20 07:06:42;;;;;;;15.10;11.10;;;14.20;99.90;;;;;;5041806;28;20245;-76
2022/10/20 07:09:12;;;;;;;14.27;11.60;;;14.20;99.90;;;;;;5039642;28;20273;-76
2022/10/20 07:11:38;;;;;;;18.03;13.23;;;14.20;99.90;;;;;;5042586;28;20600;-76
2022/10/20 07:14:04;;;;;;;15.77;12.17;;;14.20;99.90;;;;;;5046413;28;20684;-76
2022/10/20 07:16:33;;;;;;;14.17;12.00;;;14.20;99.90;;;;;;5034305;28;20179;-76
2022/10/20 07:19:00;;;;;;;17.03;12.57;;;14.30;99.90;;;;;;5032741;28;20170;-77
2022/10/20 07:21:27;;;;;;;16.67;12.80;;;14.30;99.90;;;;;;5032164;28;20615;-76
2022/10/20 07:23:57;;;;;;;15.33;11.90;;;14.30;99.90;;;;;;5045559;28;20198;-76
2022/10/20 07:26:29;;;;;;;19.33;13.23;;;14.30;99.90;;;;;;5042185;28;20261;-76
2022/10/20 07:28:56;;;;;;;15.90;12.23;;;14.30;99.90;;;;;;5045439;28;20214;-76
2022/10/20 07:31:25;;;;;;;17.10;12.03;;;14.40;99.90;;;;;;5047518;28;20520;-76
2022/10/20 07:33:50;;;;;;;14.20;10.93;;;14.40;99.90;;;;;;5038387;28;20193;-75
2022/10/20 07:36:20;;;;;;;15.17;11.40;;;14.40;99.90;;;;;;5047739;28;20837;-76
2022/10/20 07:38:47;;;;;;;14.83;11.47;;;14.50;99.90;;;;;;5040713;28;20182;-75
2022/10/20 07:41:14;;;;;;;14.53;10.97;;;14.60;99.90;;;;;;5043343;28;20693;-75
2022/10/20 07:43:40;;;;;;;12.00;10.43;;;14.60;99.90;;;;;;5045087;28;20210;-75
2022/10/20 07:46:06;;;;;;;17.30;12.37;;;14.70;99.90;;;;;;5029762;28;20222;-75
2022/10/20 07:48:32;;;;;;;14.43;10.40;;;14.70;99.90;;;;;;5043979;28;20190;-75
2022/10/20 07:51:29;;;;;;;15.07;11.10;;;14.70;99.90;;;;;;5030064;28;20216;-76
2022/10/20 07:54:05;;;;;;;13.00;10.77;;;14.80;99.90;;;;;;5029785;28;20206;-76
2022/10/20 07:56:37;;;;;;;16.23;11.67;;;14.80;99.90;;;;;;5029820;28;20287;-75
2022/10/20 07:59:03;;;;;;;15.57;11.70;;;14.90;99.90;;;;;;5051404;28;20179;-76
2022/10/20 08:01:30;;;;;;;16.67;10.57;;;15.00;99.90;;;;;;5030447;28;20734;-76
2022/10/20 08:03:56;;;;;;;13.40;10.40;;;15.00;99.90;;;;;;5036090;28;20263;-76
2022/10/20 08:06:22;;;;;;;12.67;10.43;;;15.10;99.90;;;;;;5039645;28;20248;-76
2022/10/20 08:08:48;;;;;;;13.60;10.17;;;15.10;99.90;;;;;;5049508;28;20316;-76
2022/10/20 08:11:14;;;;;;;13.70;11.67;;;15.10;99.90;;;;;;5049387;28;20337;-76
2022/10/20 08:13:41;;;;;;;11.83;10.03;;;15.20;99.90;;;;;;5042652;28;20194;-75
2022/10/20 08:16:09;;;;;;;13.20;10.90;;;15.20;99.90;;;;;;5030103;28;20220;-76
2022/10/20 08:18:37;;;;;;;11.97;10.37;;;15.30;99.90;;;;;;5029242;28;20186;-75
2022/10/20 08:21:18;;;;;;;12.20;9.70;;;15.40;99.90;;;;;;5028070;28;20186;-76
2022/10/20 08:23:46;;;;;;;12.07;10.17;;;15.50;99.90;;;;;;5033961;28;20290;-75
2022/10/20 08:26:16;;;;;;;11.90;10.40;;;15.60;99.90;;;;;;5046118;28;20182;-76
2022/10/20 08:28:41;;;;;;;11.77;9.83;;;15.70;99.90;;;;;;5049354;28;20182;-76
2022/10/20 08:31:08;;;;;;;11.77;10.00;;;15.80;99.90;;;;;;5047997;28;20224;-75
2022/10/20 08:33:38;;;;;;;12.17;10.47;;;15.80;99.90;;;;;;5039616;28;20213;-76
2022/10/20 08:36:10;;;;;;;10.37;9.17;;;15.90;99.90;;;;;;5042588;28;20171;-75
2022/10/20 08:38:36;;;;;;;9.50;7.90;;;16.00;99.90;;;;;;5038460;28;20589;-76
2022/10/20 08:41:05;;;;;;;11.40;9.60;;;16.00;99.90;;;;;;5044321;28;20190;-76
2022/10/20 08:43:39;;;;;;;14.83;10.73;;;16.00;99.90;;;;;;5048639;28;20201;-76
2022/10/20 08:46:05;;;;;;;14.93;10.70;;;16.00;99.90;;;;;;5041828;28;20479;-76
2022/10/20 08:48:32;;;;;;;11.40;9.10;;;16.00;99.90;;;;;;5047506;28;20239;-76
2022/10/20 08:50:59;;;;;;;10.87;9.60;;;16.00;99.90;;;;;;5024401;28;20250;-76
2022/10/20 08:53:26;;;;;;;11.00;9.70;;;16.00;99.90;;;;;;5039545;28;20232;-76
2022/10/20 08:55:54;;;;;;;12.87;9.27;;;15.90;99.90;;;;;;5040787;28;20213;-76
2022/10/20 08:58:22;;;;;;;12.43;9.80;;;16.00;99.90;;;;;;5057572;28;20212;-75
2022/10/20 09:00:55;;;;;;;9.83;8.83;;;16.00;99.90;;;;;;5047222;28;20405;-76
2022/10/20 09:03:28;;;;;;;10.90;9.60;;;16.00;99.90;;;;;;5047966;28;20736;-75
2022/10/20 09:05:58;;;;;;;11.13;9.17;;;16.10;99.90;;;;;;5049280;28;20228;-76
2022/10/20 09:08:27;;;;;;;14.93;8.77;;;16.20;99.90;;;;;;5043476;28;20705;-75
2022/10/20 09:10:54;;;;;;;11.63;9.03;;;16.20;99.90;;;;;;5039848;28;20201;-75
2022/10/20 09:13:25;;;;;;;12.20;8.43;;;16.20;99.90;;;;;;5036329;28;20572;-76
2022/10/20 09:16:03;;;;;;;11.83;8.10;;;16.20;99.90;;;;;;5035700;28;20252;-76
2022/10/20 09:18:30;;;;;;;12.33;8.63;;;16.30;99.90;;;;;;5032492;28;20187;-74
2022/10/20 09:21:15;;;;;;;10.07;8.03;;;16.40;99.90;;;;;;5047404;28;20189;-75
2022/10/20 09:23:46;;;;;;;9.90;8.50;;;16.40;99.90;;;;;;5040626;28;20236;-75
2022/10/20 09:26:42;;;;;;;10.00;8.17;;;16.50;99.90;;;;;;5040502;28;20184;-76
2022/10/20 09:29:12;;;;;;;10.57;8.50;;;16.70;99.90;;;;;;5032707;28;20837;-76
2022/10/20 09:31:44;;;;;;;10.40;8.63;;;16.80;99.90;;;;;;5042137;28;20185;-76
2022/10/20 09:34:24;;;;;;;11.17;8.83;;;17.00;99.90;;;;;;5030759;28;20209;-76
2022/10/20 09:36:56;;;;;;;10.20;9.13;;;17.00;99.90;;;;;;5047542;28;20185;-75
2022/10/20 09:39:26;;;;;;;10.97;9.60;;;17.00;99.90;;;;;;5046289;28;20206;-76
2022/10/20 09:42:05;;;;;;;12.10;9.50;;;17.10;99.90;;;;;;5048516;28;20220;-79
2022/10/20 09:44:37;;;;;;;12.40;9.77;;;17.10;99.90;;;;;;5009537;28;20314;-78
2022/10/20 09:47:03;;;;;;;11.13;9.67;;;17.10;99.90;;;;;;5039774;28;20189;-76
2022/10/20 09:49:35;;;;;;;13.57;10.00;;;17.20;99.90;;;;;;5039531;28;20209;-77
2022/10/20 09:52:03;;;;;;;11.30;9.17;;;17.20;99.90;;;;;;5039555;28;20648;-75
2022/10/20 09:54:29;;;;;;;13.90;9.60;;;17.30;99.90;;;;;;5037383;28;20217;-74
2022/10/20 09:57:07;;;;;;;11.47;8.90;;;17.30;99.90;;;;;;5039920;28;20417;-75
2022/10/20 09:59:39;;;;;;;12.37;8.97;;;17.40;99.90;;;;;;5042600;28;20221;-75
2022/10/20 10:02:14;;;;;;;15.07;10.00;;;17.50;99.90;;;;;;5042279;28;20192;-75
2022/10/20 10:04:46;;;;;;;12.73;9.77;;;17.60;99.90;;;;;;5039549;28;20216;-75
2022/10/20 10:07:20;;;;;;;10.90;9.13;;;17.70;99.90;;;;;;5060144;28;20217;-75
2022/10/20 10:09:56;;;;;;;11.70;10.13;;;17.80;99.90;;;;;;5044486;28;20908;-76
2022/10/20 10:12:24;;;;;;;12.63;9.03;;;17.70;99.90;;;;;;5037834;28;20215;-76
2022/10/20 10:14:54;;;;;;;13.13;9.60;;;17.70;99.90;;;;;;5040101;28;20205;-76
2022/10/20 10:17:30;;;;;;;13.67;10.80;;;17.70;99.90;;;;;;5033124;28;20182;-75
2022/10/20 10:19:56;;;;;;;14.90;10.20;;;17.50;99.90;;;;;;5041024;28;20321;-74
2022/10/20 10:22:22;;;;;;;14.50;10.50;;;17.50;99.90;;;;;;5038436;28;20269;-76
2022/10/20 10:24:49;;;;;;;13.70;10.10;;;17.40;99.90;;;;;;5037721;28;20247;-76
2022/10/20 10:27:35;;;;;;;18.43;11.30;;;17.30;99.90;;;;;;5038595;28;20665;-75
2022/10/20 10:30:27;;;;;;;12.17;10.33;;;17.30;99.90;;;;;;5041262;28;20205;-75
2022/10/20 10:32:53;;;;;;;13.20;10.47;;;17.40;99.90;;;;;;5042084;28;20573;-75
2022/10/20 10:35:41;;;;;;;12.93;10.30;;;17.50;99.90;;;;;;5038633;28;20190;-75
2022/10/20 10:38:09;;;;;;;10.97;9.60;;;17.70;99.90;;;;;;5042819;28;20185;-75
2022/10/20 10:40:49;;;;;;;11.80;10.17;;;17.80;99.90;;;;;;5035412;28;20169;-73
2022/10/20 10:43:40;;;;;;;11.33;9.33;;;18.00;99.90;;;;;;5041661;28;20209;-75
2022/10/20 10:46:18;;;;;;;13.27;10.03;;;18.00;99.90;;;;;;5041614;28;20209;-75
2022/10/20 10:49:05;;;;;;;13.40;11.77;;;18.10;99.90;;;;;;5039414;28;20264;-75
2022/10/20 10:52:02;;;;;;;12.60;10.97;;;18.20;99.90;;;;;;5038259;28;20212;-75
2022/10/20 10:54:47;;;;;;;14.47;11.23;;;18.20;99.90;;;;;;5040877;28;20213;-75
2022/10/20 10:57:36;;;;;;;13.00;9.90;;;18.20;99.90;;;;;;5040786;28;20216;-75
2022/10/20 11:00:11;;;;;;;11.93;10.00;;;18.30;99.90;;;;;;5041832;28;20228;-75
2022/10/20 11:03:14;;;;;;;11.00;8.87;;;18.40;99.90;;;;;;5040715;28;20221;-75
2022/10/20 11:06:05;;;;;;;12.40;9.00;;;18.50;99.90;;;;;;5044318;28;20188;-75
2022/10/20 11:08:50;;;;;;;10.67;8.80;;;18.60;99.90;;;;;;5047425;28;20185;-74
2022/10/20 11:11:41;;;;;;;10.03;8.77;;;18.80;99.90;;;;;;5043435;28;20241;-74
2022/10/20 11:14:30;;;;;;;10.83;8.33;;;18.90;99.90;;;;;;5038236;28;20286;-75
2022/10/20 11:17:44;;;;;;;13.80;8.77;;;19.00;99.90;;;;;;5043994;28;20178;-75
2022/10/20 11:20:33;;;;;;;12.57;9.37;;;19.20;99.90;;;;;;4977544;28;20192;-74
2022/10/20 11:23:41;;;;;;;13.57;11.20;;;19.30;99.90;;;;;;5038666;28;20210;-74
2022/10/20 11:26:28;;;;;;;13.10;11.27;;;19.20;99.90;;;;;;5048302;28;20178;-75
2022/10/20 11:28:56;;;;;;;15.53;12.20;;;19.00;99.90;;;;;;5047732;28;20834;-75
2022/10/20 11:31:42;;;;;;;17.90;13.53;;;18.80;99.90;;;;;;5045670;28;20224;-75
2022/10/20 11:34:29;;;;;;;13.53;10.77;;;18.60;99.90;;;;;;5039552;28;20678;-74
2022/10/20 11:37:18;;;;;;;13.60;10.30;;;18.60;99.90;;;;;;5045489;28;20216;-74
2022/10/20 11:39:54;;;;;;;12.10;9.50;;;18.60;99.90;;;;;;5042207;28;20186;-74
2022/10/20 11:42:29;;;;;;;11.67;10.07;;;18.60;99.90;;;;;;5048058;28;20660;-75
2022/10/20 11:44:58;;;;;;;19.03;14.63;;;18.60;99.90;;;;;;5047797;28;20270;-75
2022/10/20 11:47:37;;;;;;;11.37;10.17;;;18.60;99.90;;;;;;5041317;28;20202;-74
2022/10/20 11:50:10;;;;;;;11.00;9.70;;;18.50;99.90;;;;;;5047383;28;20237;-75
2022/10/20 11:52:52;;;;;;;9.90;8.73;;;18.40;99.90;;;;;;5045565;28;20852;-75
2022/10/20 11:55:59;;;;;;;12.73;8.67;;;18.30;99.90;;;;;;5038666;28;20258;-75
2022/10/20 11:59:06;;;;;;;11.37;9.20;;;18.30;99.90;;;;;;5044901;28;20205;-74
2022/10/20 12:01:51;;;;;;;17.20;15.27;;;18.30;99.90;;;;;;5044519;28;20940;-77
2022/10/20 12:04:23;;;;;;;15.10;11.20;;;18.20;99.90;;;;;;5040320;28;20226;-77
2022/10/20 12:07:19;;;;;;;14.57;11.40;;;18.10;99.90;;;;;;5040355;28;20198;-77
2022/10/20 12:10:29;;;;;;;10.60;8.80;;;18.10;99.90;;;;;;5044168;28;20194;-77
2022/10/20 12:13:28;;;;;;;10.57;9.03;;;18.00;99.90;;;;;;5018531;28;20177;-77
2022/10/20 12:15:54;;;;;;;13.60;11.20;;;18.00;99.90;;;;;;5055695;28;20179;-77
2022/10/20 12:18:28;;;;;;;12.80;9.40;;;18.00;99.90;;;;;;5039563;28;20182;-76
2022/10/20 12:21:06;;;;;;;12.73;9.37;;;18.10;99.90;;;;;;5043123;28;20212;-75
2022/10/20 12:23:44;;;;;;;14.77;10.30;;;18.10;99.90;;;;;;5040729;28;20197;-76
2022/10/20 12:27:00;;;;;;;9.90;8.63;;;18.10;99.90;;;;;;5035763;28;20277;-79
2022/10/20 12:29:29;;;;;;;22.93;17.07;;;18.10;99.90;;;;;;4985547;28;20200;-73
2022/10/20 12:32:32;;;;;;;13.63;11.43;;;18.10;99.90;;;;;;5031868;28;20186;-74
2022/10/20 12:35:10;;;;;;;14.23;11.03;;;18.10;99.90;;;;;;5032252;28;20603;-76
2022/10/20 12:37:37;;;;;;;12.83;10.13;;;18.00;99.90;;;;;;5040403;28;20247;-72
2022/10/20 12:40:06;;;;;;;12.30;9.93;;;18.00;99.90;;;;;;5039012;28;20192;-78
2022/10/20 12:42:35;;;;;;;13.57;11.03;;;17.90;99.90;;;;;;5041584;28;20194;-74
2022/10/20 12:45:22;;;;;;;13.63;11.40;;;17.90;99.90;;;;;;5035738;28;20918;-74
2022/10/20 12:47:54;;;;;;;14.47;10.73;;;17.90;99.90;;;;;;5045903;28;20231;-73
2022/10/20 12:50:41;;;;;;;15.30;11.00;;;17.80;99.90;;;;;;5043006;28;20198;-73
2022/10/20 12:53:18;;;;;;;11.63;10.37;;;17.80;99.90;;;;;;5032398;28;20560;-76
2022/10/20 12:55:46;;;;;;;12.60;10.70;;;17.70;99.90;;;;;;5045267;28;20673;-74
2022/10/20 12:58:18;;;;;;;13.13;11.10;;;17.70;99.90;;;;;;5044097;28;20548;-76